San Diego, California
Traffic Map
Current Weather Conditions
San Diego, California
Clear
Clear
24°
Feels Like: 24°
Wind Chill: 24° Ceiling: Unl
Heat Index: 24° Visibility: 10mi
Dew Point: 13° Wind: 3mph
Humidity: 51% Direction: 360° (N)
Pressure: 30.02in Gusts: 0mph
Raw Report DataKSAN 280851Z 36003KT 10SM CLR 24/13 A3002 RMK AO2 SLP164 T02390133 50001 $
Traffic Incident Summary
Active as of:
Severity:
Category:
InformationThere was an issue retrieving the traffic information for this location. Please try a different location or try again shortly.
Advertisements
Track Severe Weather on mobile